Time;durP1;ratioP1;P1;durP2;ratioP2;P2;SDS_P1;SDS_P2;PMS_P1;PMS_P2;Temp;Humidity;BMP_temperature;BMP_pressure;BME280_temperature;BME280_humidity;BME280_pressure;Samples;Min_cycle;Max_cycle;Signal;HPM_P1;HPM_P2
2022/12/18 00:01:44;;;;;;;49.78;19.08;;;;;;;7.52;100.00;94042.41;5021432;28;20084;-34
2022/12/18 00:04:23;;;;;;;51.42;20.77;;;;;;;7.45;100.00;94050.47;5020496;28;20108;-34
2022/12/18 00:06:49;;;;;;;;;;;;;;;7.50;100.00;94061.41;5018418;28;20038;-34
2022/12/18 00:09:14;;;;;;;38.90;18.05;;;;;;;7.60;100.00;94059.06;5022665;28;20412;-34
2022/12/18 00:11:39;;;;;;;45.50;19.98;;;;;;;7.69;100.00;94063.47;5027657;28;20028;-34
2022/12/18 00:14:05;;;;;;;47.88;19.05;;;;;;;7.73;99.55;94067.44;5023479;28;20407;-34
2022/12/18 00:16:32;;;;;;;45.03;20.25;;;;;;;7.81;99.36;94068.34;5025298;28;20025;-35
2022/12/18 00:18:59;;;;;;;35.72;18.27;;;;;;;7.86;99.03;94069.53;5028132;28;20025;-34
2022/12/18 00:21:26;;;;;;;31.73;18.45;;;;;;;7.93;98.10;94077.19;5020757;28;20030;-34
2022/12/18 00:23:51;;;;;;;36.40;18.40;;;;;;;8.00;97.97;94087.63;5024992;28;20402;-34
2022/12/18 00:26:23;;;;;;;43.08;19.60;;;;;;;7.86;97.50;94086.03;5032745;28;20029;-34
2022/12/18 00:28:49;;;;;;;29.55;15.65;;;;;;;7.93;96.63;94091.69;5027880;28;20507;-34
2022/12/18 00:31:17;;;;;;;49.08;18.58;;;;;;;7.89;96.57;94088.50;5023436;28;20110;-34
2022/12/18 00:33:43;;;;;;;47.40;19.00;;;;;;;7.75;95.81;94091.66;5024816;28;20048;-34
2022/12/18 00:36:27;;;;;;;29.33;16.60;;;;;;;7.73;95.91;94094.16;5025585;28;20690;-34
2022/12/18 00:38:58;;;;;;;33.50;16.40;;;;;;;7.57;95.50;94090.31;5031290;28;20037;-34
2022/12/18 00:44:11;;;;;;;20.08;12.80;;;;;;;7.36;95.67;94100.25;5030485;28;20080;-34
2022/12/18 00:46:37;;;;;;;20.15;12.15;;;;;;;7.22;96.19;94098.59;5026916;28;20053;-34
2022/12/18 00:49:02;;;;;;;24.67;11.70;;;;;;;7.15;96.39;94102.66;5027304;28;20053;-34
2022/12/18 00:51:28;;;;;;;17.67;11.23;;;;;;;7.07;96.51;94104.47;5027976;28;20417;-34
2022/12/18 00:53:53;;;;;;;14.82;9.27;;;;;;;7.04;96.09;94099.25;5021260;28;20495;-34
2022/12/18 00:56:22;;;;;;;14.50;9.63;;;;;;;6.97;95.87;94099.78;5025943;28;20025;-34
2022/12/18 00:58:48;;;;;;;;;;;;;;;6.96;96.38;94101.03;5030855;28;20029;-34
2022/12/18 01:01:14;;;;;;;19.38;10.73;;;;;;;6.89;96.54;94103.06;5029051;28;19913;-34
2022/12/18 01:03:39;;;;;;;13.27;8.60;;;;;;;6.94;96.46;94109.78;5023144;28;20486;-34
2022/12/18 01:06:07;;;;;;;15.80;9.48;;;;;;;6.88;95.79;94109.09;5022858;28;20021;-34
2022/12/18 01:08:32;;;;;;;18.33;8.93;;;;;;;6.79;96.65;94117.63;5027426;28;20032;-34
2022/12/18 01:10:58;;;;;;;16.38;9.63;;;;;;;6.69;96.26;94110.94;5018430;28;20417;-34
2022/12/18 01:13:23;;;;;;;15.00;9.45;;;;;;;6.79;96.58;94115.63;5022864;28;20033;-34
2022/12/18 01:15:50;;;;;;;16.33;9.75;;;;;;;6.83;95.75;94116.09;5024598;28;20029;-34
2022/12/18 01:18:15;;;;;;;12.73;8.80;;;;;;;6.92;94.52;94122.53;5025627;28;20040;-34
2022/12/18 01:20:40;;;;;;;11.23;8.05;;;;;;;6.91;93.86;94119.03;5025825;28;20917;-33
2022/12/18 01:23:06;;;;;;;16.17;9.40;;;;;;;6.98;94.00;94121.22;5028311;28;20025;-34
2022/12/18 01:25:31;;;;;;;14.32;8.63;;;;;;;7.00;93.46;94115.97;5028068;28;20033;-34
2022/12/18 01:27:57;;;;;;;15.23;8.55;;;;;;;7.01;91.93;94125.72;5024657;28;20025;-34
2022/12/18 01:30:22;;;;;;;16.15;8.68;;;;;;;7.06;91.58;94122.16;5023429;28;20021;-34
2022/12/18 01:32:47;;;;;;;11.23;7.85;;;;;;;7.07;90.78;94120.19;5019026;28;20496;-34
2022/12/18 01:35:13;;;;;;;14.32;8.27;;;;;;;6.84;91.33;94114.09;5028511;28;20018;-34
2022/12/18 01:37:38;;;;;;;14.88;9.73;;;;;;;6.84;91.21;94125.06;5021328;28;20037;-34
2022/12/18 01:40:04;;;;;;;15.38;9.30;;;;;;;6.62;92.14;94127.94;5022852;28;20033;-34
2022/12/18 01:42:30;;;;;;;14.23;8.13;;;;;;;6.58;92.54;94130.22;5022234;28;20029;-34
2022/12/18 01:45:12;;;;;;;13.05;9.43;;;;;;;6.46;92.63;94129.50;5027190;28;20045;-34
2022/12/18 01:47:44;;;;;;;15.90;8.75;;;;;;;6.49;92.39;94134.00;5030380;28;20029;-34
2022/12/18 01:50:37;;;;;;;14.45;9.43;;;;;;;6.52;91.20;94132.22;5021296;28;20100;-34
2022/12/18 01:53:16;;;;;;;14.90;8.65;;;;;;;6.37;91.29;94129.03;5022841;28;20025;-34
2022/12/18 01:55:53;;;;;;;14.95;8.95;;;;;;;6.30;92.30;94140.56;5029736;28;20029;-34
2022/12/18 01:58:20;;;;;;;15.55;9.15;;;;;;;6.35;91.91;94140.50;5028731;28;20116;-34
2022/12/18 02:00:45;;;;;;;14.35;8.52;;;;;;;6.25;92.60;94144.06;5043048;28;20056;-34
2022/12/18 02:03:11;;;;;;;19.30;9.13;;;;;;;6.20;93.19;94148.28;5028637;28;20025;-34
2022/12/18 02:05:47;;;;;;;12.18;8.48;;;;;;;6.16;92.33;94150.56;5026455;28;20512;-34
2022/12/18 02:08:27;;;;;;;16.65;9.88;;;;;;;6.18;92.65;94158.28;5027000;28;20116;-34
2022/12/18 02:11:11;;;;;;;13.82;8.88;;;;;;;5.95;93.01;94136.41;5025376;28;20751;-34
2022/12/18 02:13:46;;;;;;;14.52;9.77;;;;;;;6.06;94.18;94154.84;5023101;28;20021;-34
2022/12/18 02:16:15;;;;;;;17.58;9.95;;;;;;;6.26;92.48;94154.50;5025736;28;20033;-34
2022/12/18 02:18:45;;;;;;;13.83;8.60;;;;;;;6.13;91.38;94163.28;5020473;28;20083;-34
2022/12/18 02:21:48;;;;;;;12.43;7.80;;;;;;;6.09;92.57;94165.53;5020279;28;20021;-34
2022/12/18 02:24:22;;;;;;;13.25;8.60;;;;;;;6.10;93.06;94172.50;5013429;28;20063;-34
2022/12/18 02:26:50;;;;;;;12.95;8.90;;;;;;;6.10;93.50;94166.28;5022668;28;20041;-34
2022/12/18 02:29:39;;;;;;;17.20;8.85;;;;;;;6.11;92.86;94173.25;5028118;28;20029;-34
2022/12/18 02:32:09;;;;;;;13.82;8.57;;;;;;;6.13;92.71;94172.75;5024827;28;20025;-34
2022/12/18 02:34:37;;;;;;;19.48;10.80;;;;;;;6.06;92.69;94166.53;5027573;28;20033;-34
2022/12/18 02:37:05;;;;;;;15.30;9.80;;;;;;;6.24;91.81;94181.69;5028708;28;20044;-34
2022/12/18 02:39:32;;;;;;;17.00;9.88;;;;;;;6.16;90.78;94177.97;5015649;28;20115;-34
2022/12/18 02:41:58;;;;;;;12.93;9.32;;;;;;;6.08;91.21;94177.75;5018236;28;20056;-34
2022/12/18 02:44:24;;;;;;;17.35;11.15;;;;;;;6.13;90.35;94186.47;5026376;28;20037;-34
2022/12/18 02:46:52;;;;;;;18.45;10.32;;;;;;;6.18;90.61;94183.69;5021100;28;20036;-34
2022/12/18 02:49:29;;;;;;;16.50;10.45;;;;;;;6.24;89.71;94180.97;5020186;28;20029;-35
2022/12/18 02:52:23;;;;;;;13.63;8.15;;;;;;;6.14;89.48;94185.94;5016019;28;20037;-34
2022/12/18 02:55:14;;;;;;;24.17;8.18;;;;;;;6.03;89.49;94191.47;4999793;28;20103;-34
2022/12/18 02:57:44;;;;;;;13.95;8.68;;;;;;;5.92;90.93;94188.72;5021490;28;20087;-34
2022/12/18 03:00:16;;;;;;;15.85;9.75;;;;;;;5.82;91.44;94193.72;5016428;28;20030;-35
2022/12/18 03:02:55;;;;;;;20.95;10.70;;;;;;;5.86;91.57;94194.22;5023573;28;20463;-35
2022/12/18 03:05:30;;;;;;;18.13;10.20;;;;;;;5.73;92.17;94191.22;5041818;28;20022;-35
2022/12/18 03:08:03;;;;;;;14.85;8.88;;;;;;;5.84;92.50;94193.22;5023020;28;20037;-35
2022/12/18 03:10:31;;;;;;;14.75;10.20;;;;;;;5.84;91.72;94194.00;5023293;28;20537;-35
2022/12/18 03:13:12;;;;;;;17.58;11.13;;;;;;;5.99;90.88;94194.47;5038992;28;20084;-35
2022/12/18 03:15:43;;;;;;;17.73;10.85;;;;;;;5.87;91.12;94201.19;5023965;28;20104;-35
2022/12/18 03:18:13;;;;;;;21.70;13.70;;;;;;;5.88;91.67;94208.19;5021895;28;20056;-35
2022/12/18 03:20:41;;;;;;;17.20;10.75;;;;;;;5.85;92.03;94200.94;5023972;28;20500;-35
2022/12/18 03:23:09;;;;;;;21.27;12.18;;;;;;;5.91;90.06;94212.66;5024834;28;20033;-35
2022/12/18 03:25:37;;;;;;;18.10;11.17;;;;;;;5.85;89.69;94216.63;5026287;28;20091;-35
2022/12/18 03:28:06;;;;;;;21.45;12.02;;;;;;;5.72;89.68;94213.63;5021596;28;20030;-35
2022/12/18 03:30:33;;;;;;;17.73;9.60;;;;;;;5.63;90.00;94211.16;5024593;28;20079;-35
2022/12/18 03:33:09;;;;;;;15.70;9.73;;;;;;;5.59;90.89;94210.66;5024545;28;20030;-34
2022/12/18 03:35:39;;;;;;;15.93;10.00;;;;;;;5.52;91.09;94209.16;5021173;28;20029;-35
2022/12/18 03:38:04;;;;;;;18.17;10.55;;;;;;;5.64;90.22;94229.06;5021061;28;20654;-34
2022/12/18 03:40:40;;;;;;;15.30;9.95;;;;;;;5.68;89.84;94221.34;5019819;28;20097;-34
2022/12/18 03:43:13;;;;;;;15.48;9.98;;;;;;;5.60;90.04;94225.84;5027039;28;20117;-34
2022/12/18 03:45:43;;;;;;;18.88;10.60;;;;;;;5.61;90.58;94238.31;5019364;28;20037;-35
2022/12/18 03:48:20;;;;;;;16.83;10.32;;;;;;;5.55;90.97;94240.25;5038268;28;20045;-34
2022/12/18 03:50:50;;;;;;;21.27;10.70;;;;;;;5.47;91.93;94247.50;5026204;28;20061;-34
2022/12/18 03:53:30;;;;;;;17.52;10.43;;;;;;;5.55;91.75;94249.25;5039533;28;20018;-34
2022/12/18 03:55:56;;;;;;;15.43;9.38;;;;;;;5.61;90.73;94254.75;5031038;28;20497;-34
2022/12/18 03:58:24;;;;;;;18.40;11.00;;;;;;;5.55;89.53;94254.72;5028307;28;20103;-34
2022/12/18 04:00:52;;;;;;;16.08;9.85;;;;;;;5.52;89.72;94258.47;5044768;28;20069;-34
2022/12/18 04:03:18;;;;;;;17.20;10.18;;;;;;;5.54;90.31;94252.47;5030781;28;20037;-34
2022/12/18 04:05:45;;;;;;;18.23;10.25;;;;;;;5.46;91.19;94256.97;5028215;28;20395;-34
2022/12/18 04:08:10;;;;;;;17.05;10.50;;;;;;;5.53;91.51;94254.47;5030692;28;20034;-34
2022/12/18 04:10:36;;;;;;;15.57;9.55;;;;;;;5.63;90.77;94255.72;5025156;28;20030;-34
2022/12/18 04:13:01;;;;;;;16.77;9.85;;;;;;;5.48;89.27;94266.16;5028804;28;20021;-34
2022/12/18 04:15:27;;;;;;;13.75;8.45;;;;;;;5.37;89.21;94261.41;5028945;28;20033;-34
2022/12/18 04:17:52;;;;;;;13.50;8.52;;;;;;;5.48;88.60;94266.16;5026172;28;20472;-34
2022/12/18 04:20:18;;;;;;;11.85;8.43;;;;;;;5.50;88.14;94268.41;5031153;28;20043;-34
2022/12/18 04:22:43;;;;;;;13.77;9.38;;;;;;;5.41;88.59;94263.16;5030157;28;20060;-34
2022/12/18 04:25:12;;;;;;;16.33;9.73;;;;;;;5.20;89.54;94273.56;5030958;28;20029;-34
2022/12/18 04:27:37;;;;;;;16.30;10.07;;;;;;;5.22;89.64;94276.56;5031171;28;20029;-34
2022/12/18 04:30:03;;;;;;;14.48;9.27;;;;;;;5.29;88.06;94274.09;5028755;28;20091;-34
2022/12/18 04:32:28;;;;;;;14.02;9.27;;;;;;;5.18;88.87;94284.25;5027367;28;20083;-34
2022/12/18 04:34:54;;;;;;;14.02;9.18;;;;;;;5.22;89.45;94282.03;5029064;28;20021;-35
2022/12/18 04:37:20;;;;;;;15.05;9.57;;;;;;;5.28;89.76;94282.81;5026350;28;20026;-35
2022/12/18 04:39:45;;;;;;;16.20;8.93;;;;;;;5.29;89.11;94284.28;5027120;28;20080;-34
2022/12/18 04:42:10;;;;;;;12.85;8.25;;;;;;;5.18;89.66;94289.72;5021733;28;20029;-35
2022/12/18 04:44:36;;;;;;;13.55;9.05;;;;;;;5.15;90.54;94290.75;5025235;28;20442;-35
2022/12/18 04:47:01;;;;;;;14.93;10.15;;;;;;;5.27;90.50;94295.75;5027041;28;20060;-35
2022/12/18 04:49:27;;;;;;;13.98;9.35;;;;;;;5.41;87.99;94301.50;5031598;28;20033;-34
2022/12/18 04:51:52;;;;;;;12.55;8.68;;;;;;;5.43;87.48;94302.50;5027225;28;20036;-34
2022/12/18 04:54:21;;;;;;;13.73;9.48;;;;;;;5.19;86.51;94297.47;5022788;28;20036;-34
2022/12/18 04:56:46;;;;;;;14.20;9.00;;;;;;;5.23;87.56;94308.94;5026783;28;20489;-34
2022/12/18 04:59:12;;;;;;;15.15;8.27;;;;;;;5.17;88.09;94310.91;5019286;28;20032;-34
2022/12/18 05:01:37;;;;;;;15.95;8.95;;;;;;;5.18;88.90;94319.84;5017342;28;20464;-34
2022/12/18 05:04:03;;;;;;;16.27;10.52;;;;;;;5.05;88.86;94300.38;5024008;28;20552;-34
2022/12/18 05:06:28;;;;;;;20.23;13.07;;;;;;;5.23;88.82;94330.06;5028091;28;20437;-34
2022/12/18 05:08:54;;;;;;;14.10;9.55;;;;;;;5.24;88.10;94329.56;5023065;28;20188;-34
2022/12/18 05:11:19;;;;;;;18.17;11.38;;;;;;;5.19;88.27;94333.06;5029965;28;20022;-34
2022/12/18 05:13:45;;;;;;;15.43;10.60;;;;;;;5.18;87.45;94333.53;5024229;28;20605;-34
2022/12/18 05:16:11;;;;;;;16.05;10.60;;;;;;;5.14;88.33;94346.72;5029981;28;20029;-34
2022/12/18 05:18:36;;;;;;;15.82;10.48;;;;;;;5.14;88.15;94347.47;5026801;28;20540;-34
2022/12/18 05:21:03;;;;;;;14.10;9.07;;;;;;;5.07;88.31;94341.69;5021667;28;20668;-34
2022/12/18 05:23:28;;;;;;;14.48;9.77;;;;;;;5.06;87.89;94351.91;5026298;28;20033;-34
2022/12/18 05:25:59;;;;;;;14.30;9.07;;;;;;;5.14;87.17;94357.66;5027713;28;20029;-34
2022/12/18 05:28:26;;;;;;;19.10;12.27;;;;;;;4.81;86.94;94330.16;5025793;28;20037;-34
2022/12/18 05:30:56;;;;;;;23.05;11.90;;;;;;;5.06;87.49;94362.13;5027413;28;20036;-34
2022/12/18 05:33:24;;;;;;;20.88;13.30;;;;;;;5.14;87.09;94365.88;5025614;28;20040;-34
2022/12/18 05:35:54;;;;;;;19.90;12.38;;;;;;;5.17;87.54;94367.63;5025987;28;20113;-34
2022/12/18 05:38:24;;;;;;;20.25;13.52;;;;;;;5.13;88.21;94375.34;5024811;28;20133;-35
2022/12/18 05:40:50;;;;;;;26.83;15.18;;;;;;;5.22;88.02;94375.88;5026005;28;20480;-35
2022/12/18 05:43:16;;;;;;;14.77;9.73;;;;;;;5.16;86.03;94374.34;5021686;28;20041;-34
2022/12/18 05:45:42;;;;;;;36.30;18.35;;;;;;;5.06;87.44;94379.28;5025841;28;20548;-34
2022/12/18 05:48:08;;;;;;;21.23;12.15;;;;;;;5.08;86.66;94382.28;5028474;28;20160;-34
2022/12/18 05:50:38;;;;;;;37.38;18.27;;;;;;;4.98;87.35;94382.97;5029103;28;20502;-34
2022/12/18 05:53:05;;;;;;;18.33;10.52;;;;;;;4.89;87.63;94391.38;5029220;28;20032;-34
2022/12/18 05:55:38;;;;;;;17.52;10.32;;;;;;;5.01;87.11;94392.94;5027424;28;20040;-34
2022/12/18 05:58:05;;;;;;;15.80;9.82;;;;;;;4.84;87.91;94398.31;5022992;28;20525;-34
2022/12/18 06:00:31;;;;;;;17.15;10.48;;;;;;;4.91;88.55;94408.81;5014642;28;20557;-34
2022/12/18 06:02:57;;;;;;;18.80;11.70;;;;;;;4.85;88.85;94401.81;5027712;28;20044;-34
2022/12/18 06:05:23;;;;;;;25.27;14.55;;;;;;;4.90;88.01;94409.28;5023876;28;20034;-35
2022/12/18 06:07:48;;;;;;;24.13;14.15;;;;;;;4.98;87.63;94410.34;5023813;28;20559;-34
2022/12/18 06:10:14;;;;;;;14.40;9.48;;;;;;;5.04;87.13;94413.84;5026439;28;20029;-34
2022/12/18 06:12:39;;;;;;;14.88;9.60;;;;;;;5.07;86.61;94415.59;5018173;28;20026;-35
2022/12/18 06:15:05;;;;;;;16.80;9.50;;;;;;;5.09;85.33;94424.09;5020205;28;20037;-35
2022/12/18 06:17:31;;;;;;;15.35;10.25;;;;;;;5.02;85.63;94414.34;5034025;28;20104;-35
2022/12/18 06:19:57;;;;;;;18.38;9.68;;;;;;;4.94;84.98;94424.25;5018867;28;20033;-35
2022/12/18 06:22:23;;;;;;;16.65;9.77;;;;;;;4.65;85.56;94423.81;5015605;28;20038;-35
2022/12/18 06:24:48;;;;;;;16.58;10.48;;;;;;;4.59;86.31;94435.44;5018992;28;20038;-34
2022/12/18 06:27:13;;;;;;;17.25;10.70;;;;;;;4.60;86.67;94436.94;5024134;28;20029;-35
2022/12/18 06:29:39;;;;;;;16.92;10.07;;;;;;;4.41;86.76;94441.28;5018143;28;20029;-35
2022/12/18 06:32:04;;;;;;;18.95;11.70;;;;;;;4.37;87.04;94438.03;5017479;28;20018;-34
2022/12/18 06:34:30;;;;;;;24.63;12.63;;;;;;;4.23;87.93;94438.88;5019175;28;20018;-35
2022/12/18 06:36:55;;;;;;;23.92;13.63;;;;;;;4.21;88.89;94432.41;5018963;28;20506;-35
2022/12/18 06:40:01;;;;;;;20.27;12.85;;;;;;;4.31;89.27;94439.94;5019695;28;20037;-35
2022/12/18 06:42:26;;;;;;;21.70;12.27;;;;;;;4.33;88.83;94436.75;5024497;28;20021;-34
2022/12/18 06:44:52;;;;;;;19.88;12.38;;;;;;;4.47;87.86;94439.34;5041486;28;20111;-35
2022/12/18 06:47:18;;;;;;;21.10;12.38;;;;;;;4.35;87.82;94443.19;5016581;28;20096;-34
2022/12/18 06:49:43;;;;;;;22.08;12.95;;;;;;;4.40;87.93;94447.22;5019252;28;20026;-34
2022/12/18 06:52:09;;;;;;;23.15;13.32;;;;;;;4.37;88.44;94448.97;5023751;28;20068;-35
2022/12/18 06:54:34;;;;;;;24.52;13.35;;;;;;;4.44;88.58;94450.50;5026713;28;20033;-34
2022/12/18 06:57:00;;;;;;;24.23;14.20;;;;;;;4.38;88.64;94449.69;5019251;28;20030;-34
2022/12/18 06:59:25;;;;;;;24.05;13.60;;;;;;;4.38;89.87;94446.94;5023765;28;20037;-35
2022/12/18 07:01:51;;;;;;;33.53;17.48;;;;;;;4.49;89.79;94450.53;5019766;28;20091;-35
2022/12/18 07:04:17;;;;;;;35.17;18.88;;;;;;;4.44;89.05;94429.34;5028573;28;20443;-35
2022/12/18 07:06:42;;;;;;;32.65;16.58;;;;;;;4.45;88.64;94447.28;5028226;28;20025;-35
2022/12/18 07:09:08;;;;;;;40.08;22.23;;;;;;;4.52;88.91;94455.06;5019984;28;20036;-34
2022/12/18 07:11:33;;;;;;;28.80;15.38;;;;;;;4.53;88.30;94455.78;5027701;28;20040;-34
2022/12/18 07:13:59;;;;;;;20.10;12.82;;;;;;;4.60;86.31;94458.84;5024517;28;20034;-35
2022/12/18 07:16:24;;;;;;;25.58;14.32;;;;;;;4.50;84.85;94465.69;5025036;28;20025;-34
2022/12/18 07:18:49;;;;;;;22.20;14.10;;;;;;;4.32;86.14;94466.06;5019208;28;20037;-34
2022/12/18 07:21:17;;;;;;;24.23;15.18;;;;;;;4.29;86.83;94463.53;5015341;28;20494;-35
2022/12/18 07:23:43;;;;;;;23.45;14.15;;;;;;;4.19;86.64;94462.94;5013478;28;20026;-35
2022/12/18 07:26:12;;;;;;;25.35;13.93;;;;;;;4.19;86.82;94464.94;5015712;28;20500;-34
2022/12/18 07:28:39;;;;;;;25.08;14.20;;;;;;;4.23;86.76;94468.94;5019926;28;20032;-35
2022/12/18 07:31:14;;;;;;;23.58;13.40;;;;;;;4.20;86.17;94464.44;5018925;28;20057;-34
2022/12/18 07:33:40;;;;;;;26.88;16.58;;;;;;;4.16;87.42;94471.38;5023929;28;20041;-34
2022/12/18 07:36:07;;;;;;;25.65;15.20;;;;;;;4.22;86.51;94467.44;5022563;28;20022;-34
2022/12/18 07:38:33;;;;;;;23.88;15.30;;;;;;;4.23;87.39;94474.41;5026677;28;20152;-35
2022/12/18 07:41:07;;;;;;;27.63;15.35;;;;;;;4.15;86.86;94481.56;5023938;28;20108;-35
2022/12/18 07:43:33;;;;;;;23.02;14.25;;;;;;;4.11;86.90;94483.75;5026174;28;20047;-35
2022/12/18 07:45:59;;;;;;;25.08;13.65;;;;;;;4.08;86.51;94490.16;5036888;28;20053;-34
2022/12/18 07:48:24;;;;;;;25.25;14.35;;;;;;;3.84;86.15;94471.28;5024165;28;20091;-35
2022/12/18 07:50:50;;;;;;;25.20;14.52;;;;;;;3.81;86.93;94490.63;5029246;28;20128;-35
2022/12/18 07:53:15;;;;;;;28.92;14.32;;;;;;;3.80;87.37;94475.47;5027534;28;20547;-35
2022/12/18 07:55:41;;;;;;;26.33;14.85;;;;;;;4.16;86.13;94502.16;5027465;28;20472;-34
2022/12/18 07:58:07;;;;;;;30.60;15.10;;;;;;;4.05;85.41;94509.53;5024989;28;20478;-35
2022/12/18 08:00:33;;;;;;;26.50;15.95;;;;;;;3.99;85.67;94512.19;5023145;28;20025;-35
2022/12/18 08:02:59;;;;;;;23.15;13.00;;;;;;;3.93;84.74;94511.38;5022583;28;20064;-35
2022/12/18 08:05:25;;;;;;;25.58;14.02;;;;;;;3.97;85.36;94517.38;5016684;28;20827;-34
2022/12/18 08:07:50;;;;;;;25.60;14.13;;;;;;;3.96;86.06;94526.06;5019502;28;20034;-34
2022/12/18 08:10:16;;;;;;;25.08;13.27;;;;;;;3.99;86.15;94531.31;5016408;28;20075;-34
2022/12/18 08:12:41;;;;;;;25.40;14.68;;;;;;;4.00;84.66;94526.59;5017504;28;20100;-34
2022/12/18 08:15:07;;;;;;;26.00;13.95;;;;;;;4.04;85.27;94536.09;5021498;28;20516;-34
2022/12/18 08:17:33;;;;;;;23.52;12.82;;;;;;;4.10;84.93;94539.63;5020681;28;20125;-34
2022/12/18 08:19:58;;;;;;;23.75;13.60;;;;;;;4.10;84.50;94536.91;5021334;28;20035;-36
2022/12/18 08:22:24;;;;;;;22.73;15.15;;;;;;;3.88;85.11;94516.78;5023669;28;20615;-34
2022/12/18 08:24:50;;;;;;;21.60;13.43;;;;;;;4.06;86.48;94546.53;5025862;28;20028;-34
2022/12/18 08:27:15;;;;;;;27.20;14.60;;;;;;;4.20;85.77;94557.38;5024391;28;20159;-35
2022/12/18 08:29:41;;;;;;;24.70;13.38;;;;;;;4.23;85.15;94561.13;5026620;28;20409;-34
2022/12/18 08:32:06;;;;;;;28.05;15.88;;;;;;;4.17;86.38;94563.06;5024889;28;20017;-35
2022/12/18 08:34:31;;;;;;;30.13;14.68;;;;;;;4.26;87.56;94563.66;5026617;28;20025;-35
2022/12/18 08:36:57;;;;;;;26.63;13.60;;;;;;;4.29;86.19;94549.03;5023049;28;20071;-35
2022/12/18 08:39:22;;;;;;;27.90;17.20;;;;;;;4.21;85.50;94558.88;5019244;28;20095;-35
2022/12/18 08:44:37;;;;;;;24.05;14.35;;;;;;;4.42;84.88;94548.66;5022613;28;20109;-35
2022/12/18 08:44:39;;;;;;;27.13;15.93;;;;;;;4.38;85.31;94559.03;5022167;28;20173;-35
2022/12/18 08:47:06;;;;;;;26.45;14.18;;;;;;;4.43;84.55;94558.38;5022509;28;20038;-35
2022/12/18 08:49:32;;;;;;;23.88;14.13;;;;;;;4.44;83.70;94557.88;5028269;28;20036;-35
2022/12/18 08:51:57;;;;;;;25.25;14.95;;;;;;;4.38;84.00;94570.75;5023130;28;20083;-35
2022/12/18 08:54:24;;;;;;;25.38;13.40;;;;;;;4.47;83.54;94559.66;5021806;28;20033;-35
2022/12/18 08:56:49;;;;;;;23.23;14.45;;;;;;;4.47;83.21;94559.66;5019847;28;20037;-35
2022/12/18 08:59:16;;;;;;;28.65;15.85;;;;;;;4.41;83.97;94556.13;5017257;28;20510;-35
2022/12/18 09:01:42;;;;;;;26.63;15.63;;;;;;;4.46;83.96;94554.69;5019390;28;20068;-35
2022/12/18 09:04:08;;;;;;;36.08;17.15;;;;;;;4.50;84.33;94558.66;5018607;28;20057;-35
2022/12/18 09:06:34;;;;;;;25.60;15.50;;;;;;;4.52;83.85;94553.50;5015005;28;20794;-36
2022/12/18 09:08:59;;;;;;;33.13;17.15;;;;;;;4.53;83.66;94549.50;5022580;28;20029;-35
2022/12/18 09:11:26;;;;;;;34.10;19.60;;;;;;;4.61;83.74;94553.31;5015822;28;20030;-35
2022/12/18 09:13:53;;;;;;;33.45;17.88;;;;;;;4.48;84.57;94546.75;5022429;28;20036;-35
2022/12/18 09:16:19;;;;;;;34.03;18.33;;;;;;;4.46;85.09;94538.28;5024899;28;20309;-35
2022/12/18 09:18:47;;;;;;;27.55;16.00;;;;;;;4.38;85.87;94524.25;5029158;28;20036;-35
2022/12/18 09:21:15;;;;;;;27.75;16.02;;;;;;;4.63;86.04;94549.34;5026477;28;20514;-35
2022/12/18 09:23:42;;;;;;;26.70;17.55;;;;;;;4.66;86.39;94543.66;5027598;28;20040;-35
2022/12/18 09:26:08;;;;;;;31.88;18.05;;;;;;;4.85;86.87;94535.88;5022946;28;20672;-34
2022/12/18 09:28:33;;;;;;;34.63;18.05;;;;;;;5.07;87.02;94544.25;5024825;28;20110;-35
2022/12/18 09:31:04;;;;;;;22.30;14.10;;;;;;;4.96;85.10;94544.91;5026796;28;20032;-35
2022/12/18 09:33:29;;;;;;;28.05;15.73;;;;;;;5.03;84.42;94546.44;5023491;28;20037;-35
2022/12/18 09:35:55;;;;;;;23.77;13.45;;;;;;;5.17;83.68;94542.84;5021972;28;20083;-35
2022/12/18 09:38:20;;;;;;;25.08;14.80;;;;;;;5.25;83.64;94550.13;5028037;28;20060;-34
2022/12/18 09:40:52;;;;;;;23.70;14.32;;;;;;;5.32;82.56;94546.94;5027594;28;20641;-35
2022/12/18 09:43:21;;;;;;;24.52;13.93;;;;;;;5.52;82.12;94550.78;5024511;28;20064;-35
2022/12/18 09:45:51;;;;;;;23.02;12.02;;;;;;;5.63;81.05;94545.38;5024498;28;20036;-35
2022/12/18 09:48:50;;;;;;;24.23;12.23;;;;;;;5.59;79.73;94529.16;5023061;28;20512;-35
2022/12/18 09:51:20;;;;;;;27.17;14.50;;;;;;;5.75;80.33;94542.19;5010221;28;20041;-35
2022/12/18 09:53:52;;;;;;;30.38;15.27;;;;;;;5.84;77.87;94542.00;5029660;28;20127;-34
2022/12/18 09:56:25;;;;;;;27.50;16.05;;;;;;;5.81;77.58;94545.69;5016184;28;20079;-35
2022/12/18 09:58:58;;;;;;;23.30;15.25;;;;;;;5.80;78.31;94549.69;5021416;28;20111;-35
2022/12/18 10:01:24;;;;;;;33.67;16.90;;;;;;;5.96;77.51;94546.28;5028114;28;20026;-34
2022/12/18 10:03:51;;;;;;;27.38;16.42;;;;;;;6.13;77.78;94549.84;5026017;28;20081;-34
2022/12/18 10:06:37;;;;;;;23.67;13.43;;;;;;;6.35;77.02;94549.16;5029159;28;20433;-35
2022/12/18 10:09:09;;;;;;;26.00;14.90;;;;;;;6.42;76.07;94553.41;5014288;28;20043;-35
2022/12/18 10:11:49;;;;;;;21.63;12.95;;;;;;;6.51;74.14;94558.69;5016601;28;20029;-35
2022/12/18 10:14:23;;;;;;;25.48;13.70;;;;;;;6.46;74.34;94551.19;5021628;28;20041;-35
2022/12/18 10:17:04;;;;;;;21.98;12.15;;;;;;;6.40;73.68;94547.69;5015321;28;20049;-34
2022/12/18 10:19:49;;;;;;;20.67;12.70;;;;;;;6.40;73.22;94547.69;5024267;28;20044;-34
2022/12/18 10:22:36;;;;;;;23.27;12.57;;;;;;;6.33;74.43;94542.69;5019707;28;20033;-34
2022/12/18 10:25:06;;;;;;;22.17;12.40;;;;;;;6.17;73.66;94541.41;5025396;28;20033;-33
2022/12/18 10:27:32;;;;;;;24.58;13.52;;;;;;;6.11;75.02;94544.09;5019145;28;20092;-33
2022/12/18 10:29:58;;;;;;;19.98;12.02;;;;;;;6.15;74.51;94545.88;5025401;28;20029;-34
2022/12/18 10:32:26;;;;;;;21.08;13.02;;;;;;;6.13;74.58;94538.88;5020669;28;20709;-34
2022/12/18 10:34:53;;;;;;;18.77;12.18;;;;;;;6.13;74.36;94541.63;5018640;28;20539;-34
2022/12/18 10:37:25;;;;;;;21.15;11.90;;;;;;;6.15;74.27;94540.41;5011844;28;20441;-34
2022/12/18 10:40:11;;;;;;;21.30;13.95;;;;;;;6.18;73.24;94542.13;5015276;28;20033;-34
2022/12/18 10:42:37;;;;;;;18.50;12.13;;;;;;;6.19;73.58;94536.16;5015995;28;20034;-34
2022/12/18 10:45:17;;;;;;;18.85;11.45;;;;;;;6.28;73.04;94535.19;5018461;28;20100;-34
2022/12/18 10:47:45;;;;;;;22.55;13.70;;;;;;;6.27;73.09;94541.91;5014030;28;20029;-34
2022/12/18 10:50:32;;;;;;;23.63;13.00;;;;;;;6.21;73.30;94538.41;5015604;28;20029;-34
2022/12/18 10:53:00;;;;;;;22.70;12.30;;;;;;;6.19;74.01;94536.16;5034641;28;20028;-34
2022/12/18 10:55:38;;;;;;;20.42;11.38;;;;;;;6.21;72.29;94532.94;5036012;28;20561;-34
2022/12/18 10:58:19;;;;;;;21.63;12.07;;;;;;;6.36;72.68;94545.19;5016941;28;20584;-34
2022/12/18 11:00:44;;;;;;;33.60;12.52;;;;;;;6.45;71.93;94538.72;5025195;28;20716;-34
2022/12/18 11:03:32;;;;;;;18.80;12.18;;;;;;;6.56;70.93;94536.75;5025653;28;20026;-34
2022/12/18 11:06:04;;;;;;;26.33;14.35;;;;;;;6.57;71.62;94532.00;5030850;28;20064;-34
2022/12/18 11:08:29;;;;;;;24.25;13.32;;;;;;;6.66;71.43;94532.53;5025628;28;20565;-34
2022/12/18 11:10:55;;;;;;;23.83;12.63;;;;;;;6.81;70.11;94533.03;5026801;28;20104;-34
2022/12/18 11:13:22;;;;;;;20.65;12.60;;;;;;;6.83;69.93;94536.03;5021328;28;20024;-34
2022/12/18 11:15:49;;;;;;;23.65;12.90;;;;;;;6.90;69.13;94537.53;5027150;28;20021;-34
2022/12/18 11:18:18;;;;;;;19.85;12.23;;;;;;;7.12;68.84;94525.81;5024360;28;20604;-34
2022/12/18 11:20:43;;;;;;;;;;;;;;;7.20;68.99;94524.81;5025830;28;20122;-34
2022/12/18 11:23:13;;;;;;;21.70;12.75;;;;;;;7.20;69.34;94510.31;5030105;28;20404;-34
2022/12/18 11:25:39;;;;;;;18.65;12.50;;;;;;;7.14;67.86;94529.56;5027256;28;20084;-33
2022/12/18 11:28:36;;;;;;;22.40;13.23;;;;;;;6.86;68.27;94534.31;5023347;28;20600;-33
2022/12/18 11:31:27;;;;;;;23.40;13.15;;;;;;;6.88;67.81;94540.78;5022291;28;20395;-34
2022/12/18 11:34:18;;;;;;;24.17;11.82;;;;;;;6.86;69.00;94548.03;5030749;28;20036;-34
2022/12/18 11:36:46;;;;;;;21.95;11.57;;;;;;;6.89;68.84;94545.03;5026297;28;20673;-34
2022/12/18 11:39:42;;;;;;;21.17;11.32;;;;;;;6.77;68.20;94520.81;5019754;28;20018;-34
2022/12/18 11:42:25;;;;;;;20.95;11.73;;;;;;;7.11;68.45;94540.78;5027875;28;20036;-34